sensor_id;sensor_type;location;lat;lon;timestamp;temperature;humidity
316;DHT22;14128;48.686;9.738;2023-05-02T00:01:18;6.40;99.90
316;DHT22;14128;48.686;9.738;2023-05-02T00:03:45;6.40;99.90
316;DHT22;14128;48.686;9.738;2023-05-02T00:06:11;6.40;99.90
316;DHT22;14128;48.686;9.738;2023-05-02T00:08:38;6.40;99.90
316;DHT22;14128;48.686;9.738;2023-05-02T00:11:05;6.30;99.90
316;DHT22;14128;48.686;9.738;2023-05-02T00:13:33;6.40;99.90
316;DHT22;14128;48.686;9.738;2023-05-02T00:16:00;6.40;1.00
316;DHT22;14128;48.686;9.738;2023-05-02T00:18:27;6.40;99.90
316;DHT22;14128;48.686;9.738;2023-05-02T00:20:54;6.40;99.90
316;DHT22;14128;48.686;9.738;2023-05-02T00:23:21;6.40;56.20
316;DHT22;14128;48.686;9.738;2023-05-02T00:25:48;6.40;94.10
316;DHT22;14128;48.686;9.738;2023-05-02T00:28:15;6.40;64.40
316;DHT22;14128;48.686;9.738;2023-05-02T00:30:44;6.30;1.00
316;DHT22;14128;48.686;9.738;2023-05-02T00:33:11;6.40;19.70
316;DHT22;14128;48.686;9.738;2023-05-02T00:35:39;6.40;90.30
316;DHT22;14128;48.686;9.738;2023-05-02T00:38:06;6.40;99.90
316;DHT22;14128;48.686;9.738;2023-05-02T00:40:42;6.40;99.90
316;DHT22;14128;48.686;9.738;2023-05-02T00:43:09;6.40;99.90
316;DHT22;14128;48.686;9.738;2023-05-02T00:45:36;6.40;22.30
316;DHT22;14128;48.686;9.738;2023-05-02T00:48:06;6.30;99.90
316;DHT22;14128;48.686;9.738;2023-05-02T00:50:35;6.30;10.00
316;DHT22;14128;48.686;9.738;2023-05-02T00:53:03;6.20;99.90
316;DHT22;14128;48.686;9.738;2023-05-02T00:55:30;6.20;99.90
316;DHT22;14128;48.686;9.738;2023-05-02T00:57:58;6.20;1.00
316;DHT22;14128;48.686;9.738;2023-05-02T01:00:32;6.20;1.00
316;DHT22;14128;48.686;9.738;2023-05-02T01:03:11;6.10;99.90
316;DHT22;14128;48.686;9.738;2023-05-02T01:05:49;6.10;99.90
316;DHT22;14128;48.686;9.738;2023-05-02T01:08:27;6.10;1.00
316;DHT22;14128;48.686;9.738;2023-05-02T01:11:04;6.10;1.00
316;DHT22;14128;48.686;9.738;2023-05-02T01:13:37;6.10;48.90
316;DHT22;14128;48.686;9.738;2023-05-02T01:16:05;6.00;99.90
316;DHT22;14128;48.686;9.738;2023-05-02T01:18:35;6.00;1.00
316;DHT22;14128;48.686;9.738;2023-05-02T01:21:06;6.00;1.00
316;DHT22;14128;48.686;9.738;2023-05-02T01:23:40;5.90;1.00
316;DHT22;14128;48.686;9.738;2023-05-02T01:26:15;5.90;54.80
316;DHT22;14128;48.686;9.738;2023-05-02T01:28:58;5.90;46.50
316;DHT22;14128;48.686;9.738;2023-05-02T01:31:26;5.90;99.90
316;DHT22;14128;48.686;9.738;2023-05-02T01:33:55;5.80;1.00
316;DHT22;14128;48.686;9.738;2023-05-02T01:36:24;5.90;1.00
316;DHT22;14128;48.686;9.738;2023-05-02T01:38:53;6.00;46.70
316;DHT22;14128;48.686;9.738;2023-05-02T01:41:22;6.00;18.50
316;DHT22;14128;48.686;9.738;2023-05-02T01:43:51;6.00;89.60
316;DHT22;14128;48.686;9.738;2023-05-02T01:46:21;6.00;99.90
316;DHT22;14128;48.686;9.738;2023-05-02T01:48:50;6.00;14.70
316;DHT22;14128;48.686;9.738;2023-05-02T01:51:18;5.90;1.00
316;DHT22;14128;48.686;9.738;2023-05-02T01:53:47;5.90;1.00
316;DHT22;14128;48.686;9.738;2023-05-02T01:56:16;5.90;52.10
316;DHT22;14128;48.686;9.738;2023-05-02T01:58:44;5.90;99.90
316;DHT22;14128;48.686;9.738;2023-05-02T02:01:13;5.80;1.00
316;DHT22;14128;48.686;9.738;2023-05-02T02:03:43;5.70;99.90
316;DHT22;14128;48.686;9.738;2023-05-02T02:06:11;5.70;99.90
316;DHT22;14128;48.686;9.738;2023-05-02T02:08:38;5.60;99.90
316;DHT22;14128;48.686;9.738;2023-05-02T02:11:08;5.60;1.00
316;DHT22;14128;48.686;9.738;2023-05-02T02:13:41;5.50;99.90
316;DHT22;14128;48.686;9.738;2023-05-02T02:16:11;5.50;99.90
316;DHT22;14128;48.686;9.738;2023-05-02T02:18:42;5.50;99.90
316;DHT22;14128;48.686;9.738;2023-05-02T02:21:11;5.50;99.90
316;DHT22;14128;48.686;9.738;2023-05-02T02:23:41;5.40;79.60
316;DHT22;14128;48.686;9.738;2023-05-02T02:26:09;5.40;2.50
316;DHT22;14128;48.686;9.738;2023-05-02T02:28:36;5.40;99.90
316;DHT22;14128;48.686;9.738;2023-05-02T02:31:03;5.30;99.90
316;DHT22;14128;48.686;9.738;2023-05-02T02:33:30;5.30;99.90
316;DHT22;14128;48.686;9.738;2023-05-02T02:36:06;5.30;99.90
316;DHT22;14128;48.686;9.738;2023-05-02T02:38:38;5.30;99.90
316;DHT22;14128;48.686;9.738;2023-05-02T02:41:12;5.20;99.90
316;DHT22;14128;48.686;9.738;2023-05-02T02:43:46;5.20;99.90
316;DHT22;14128;48.686;9.738;2023-05-02T02:46:23;5.10;99.90
316;DHT22;14128;48.686;9.738;2023-05-02T02:48:59;5.10;1.00
316;DHT22;14128;48.686;9.738;2023-05-02T02:51:52;5.10;99.90
316;DHT22;14128;48.686;9.738;2023-05-02T02:54:25;5.10;1.00
316;DHT22;14128;48.686;9.738;2023-05-02T02:56:58;5.10;99.90
316;DHT22;14128;48.686;9.738;2023-05-02T02:59:30;5.00;99.90
316;DHT22;14128;48.686;9.738;2023-05-02T03:02:03;5.00;99.90
316;DHT22;14128;48.686;9.738;2023-05-02T03:04:31;5.00;99.90
316;DHT22;14128;48.686;9.738;2023-05-02T03:07:01;4.90;99.90
316;DHT22;14128;48.686;9.738;2023-05-02T03:09:28;4.90;99.90
316;DHT22;14128;48.686;9.738;2023-05-02T03:12:05;4.80;99.90
316;DHT22;14128;48.686;9.738;2023-05-02T03:14:32;4.90;99.90
316;DHT22;14128;48.686;9.738;2023-05-02T03:16:59;4.80;99.90
316;DHT22;14128;48.686;9.738;2023-05-02T03:19:25;4.90;99.90
316;DHT22;14128;48.686;9.738;2023-05-02T03:21:52;4.90;99.90
316;DHT22;14128;48.686;9.738;2023-05-02T03:24:20;4.90;99.90
316;DHT22;14128;48.686;9.738;2023-05-02T03:26:47;4.90;99.90
316;DHT22;14128;48.686;9.738;2023-05-02T03:29:14;4.80;99.90
316;DHT22;14128;48.686;9.738;2023-05-02T03:31:41;4.80;99.90
316;DHT22;14128;48.686;9.738;2023-05-02T03:34:08;4.90;99.90
316;DHT22;14128;48.686;9.738;2023-05-02T03:36:35;4.90;99.90
316;DHT22;14128;48.686;9.738;2023-05-02T03:39:02;4.90;99.90
316;DHT22;14128;48.686;9.738;2023-05-02T03:41:30;4.90;99.90
316;DHT22;14128;48.686;9.738;2023-05-02T03:43:56;5.00;99.90
316;DHT22;14128;48.686;9.738;2023-05-02T03:46:24;5.00;99.90
316;DHT22;14128;48.686;9.738;2023-05-02T03:48:50;5.00;99.90
316;DHT22;14128;48.686;9.738;2023-05-02T03:51:17;5.10;99.90
316;DHT22;14128;48.686;9.738;2023-05-02T03:53:45;5.10;99.90
316;DHT22;14128;48.686;9.738;2023-05-02T03:56:11;5.20;99.90
316;DHT22;14128;48.686;9.738;2023-05-02T03:58:46;5.30;99.90
316;DHT22;14128;48.686;9.738;2023-05-02T04:01:13;5.30;99.90
316;DHT22;14128;48.686;9.738;2023-05-02T04:03:40;5.30;99.90
316;DHT22;14128;48.686;9.738;2023-05-02T04:06:07;5.40;99.90
316;DHT22;14128;48.686;9.738;2023-05-02T04:08:34;5.40;99.90
316;DHT22;14128;48.686;9.738;2023-05-02T04:11:01;5.30;99.90
316;DHT22;14128;48.686;9.738;2023-05-02T04:13:28;5.30;99.90
316;DHT22;14128;48.686;9.738;2023-05-02T04:15:56;5.40;99.90
316;DHT22;14128;48.686;9.738;2023-05-02T04:18:23;5.40;99.90
316;DHT22;14128;48.686;9.738;2023-05-02T04:20:50;5.50;99.90
316;DHT22;14128;48.686;9.738;2023-05-02T04:23:17;5.50;99.90
316;DHT22;14128;48.686;9.738;2023-05-02T04:25:50;5.60;99.90
316;DHT22;14128;48.686;9.738;2023-05-02T04:28:19;5.60;99.90
316;DHT22;14128;48.686;9.738;2023-05-02T04:30:46;5.60;99.90
316;DHT22;14128;48.686;9.738;2023-05-02T04:33:14;5.60;99.90
316;DHT22;14128;48.686;9.738;2023-05-02T04:35:41;5.70;99.90
316;DHT22;14128;48.686;9.738;2023-05-02T04:38:08;5.70;99.90
316;DHT22;14128;48.686;9.738;2023-05-02T04:40:35;5.70;99.90
316;DHT22;14128;48.686;9.738;2023-05-02T04:43:02;5.70;99.90
316;DHT22;14128;48.686;9.738;2023-05-02T04:45:28;5.70;99.90
316;DHT22;14128;48.686;9.738;2023-05-02T04:47:55;5.70;99.90
316;DHT22;14128;48.686;9.738;2023-05-02T04:50:23;5.60;99.90
316;DHT22;14128;48.686;9.738;2023-05-02T04:52:52;5.60;99.90
316;DHT22;14128;48.686;9.738;2023-05-02T04:55:19;5.50;99.90
316;DHT22;14128;48.686;9.738;2023-05-02T04:57:46;5.50;99.90
316;DHT22;14128;48.686;9.738;2023-05-02T05:00:13;5.50;99.90
316;DHT22;14128;48.686;9.738;2023-05-02T05:02:40;5.60;99.90
316;DHT22;14128;48.686;9.738;2023-05-02T05:05:07;5.60;99.90
316;DHT22;14128;48.686;9.738;2023-05-02T05:07:35;5.60;99.90
316;DHT22;14128;48.686;9.738;2023-05-02T05:10:03;5.80;99.90
316;DHT22;14128;48.686;9.738;2023-05-02T05:12:30;5.90;99.90
316;DHT22;14128;48.686;9.738;2023-05-02T05:14:56;6.10;99.90
316;DHT22;14128;48.686;9.738;2023-05-02T05:17:23;6.30;99.90
316;DHT22;14128;48.686;9.738;2023-05-02T05:19:50;6.60;99.90
316;DHT22;14128;48.686;9.738;2023-05-02T05:22:17;6.80;99.90
316;DHT22;14128;48.686;9.738;2023-05-02T05:24:51;7.00;99.90
316;DHT22;14128;48.686;9.738;2023-05-02T05:27:18;7.00;99.90
316;DHT22;14128;48.686;9.738;2023-05-02T05:29:45;7.00;99.90
316;DHT22;14128;48.686;9.738;2023-05-02T05:32:12;7.10;99.90
316;DHT22;14128;48.686;9.738;2023-05-02T05:34:39;7.10;99.90
316;DHT22;14128;48.686;9.738;2023-05-02T05:37:05;7.10;99.90
316;DHT22;14128;48.686;9.738;2023-05-02T05:39:32;7.10;99.90
316;DHT22;14128;48.686;9.738;2023-05-02T05:42:00;7.00;99.90
316;DHT22;14128;48.686;9.738;2023-05-02T05:44:28;7.10;99.90
316;DHT22;14128;48.686;9.738;2023-05-02T05:46:55;7.10;99.90
316;DHT22;14128;48.686;9.738;2023-05-02T05:49:22;7.30;99.90
316;DHT22;14128;48.686;9.738;2023-05-02T05:51:49;7.70;99.90
316;DHT22;14128;48.686;9.738;2023-05-02T05:54:16;8.00;99.90
316;DHT22;14128;48.686;9.738;2023-05-02T05:56:43;8.30;99.90
316;DHT22;14128;48.686;9.738;2023-05-02T05:59:11;8.60;99.90
316;DHT22;14128;48.686;9.738;2023-05-02T06:01:38;8.80;99.90
316;DHT22;14128;48.686;9.738;2023-05-02T06:04:06;9.10;99.90
316;DHT22;14128;48.686;9.738;2023-05-02T06:06:33;9.10;99.90
316;DHT22;14128;48.686;9.738;2023-05-02T06:09:00;9.20;99.90
316;DHT22;14128;48.686;9.738;2023-05-02T06:11:27;9.20;99.90
316;DHT22;14128;48.686;9.738;2023-05-02T06:13:54;9.10;99.90
316;DHT22;14128;48.686;9.738;2023-05-02T06:16:22;9.10;99.90
316;DHT22;14128;48.686;9.738;2023-05-02T06:18:50;9.10;99.90
316;DHT22;14128;48.686;9.738;2023-05-02T06:21:17;9.10;99.90
316;DHT22;14128;48.686;9.738;2023-05-02T06:23:43;9.00;1.00
316;DHT22;14128;48.686;9.738;2023-05-02T06:26:11;9.10;99.90
316;DHT22;14128;48.686;9.738;2023-05-02T06:28:38;9.20;99.90
316;DHT22;14128;48.686;9.738;2023-05-02T06:31:05;9.30;1.00
316;DHT22;14128;48.686;9.738;2023-05-02T06:33:33;9.60;1.00
316;DHT22;14128;48.686;9.738;2023-05-02T06:36:01;9.80;1.00
316;DHT22;14128;48.686;9.738;2023-05-02T06:38:28;10.00;99.90
316;DHT22;14128;48.686;9.738;2023-05-02T06:40:55;10.10;39.20
316;DHT22;14128;48.686;9.738;2023-05-02T06:43:22;10.20;1.00
316;DHT22;14128;48.686;9.738;2023-05-02T06:45:52;10.30;99.90
316;DHT22;14128;48.686;9.738;2023-05-02T06:48:20;10.70;1.00
316;DHT22;14128;48.686;9.738;2023-05-02T06:50:48;11.00;6.20
316;DHT22;14128;48.686;9.738;2023-05-02T06:53:16;11.20;99.90
316;DHT22;14128;48.686;9.738;2023-05-02T06:55:43;11.50;99.90
316;DHT22;14128;48.686;9.738;2023-05-02T06:58:11;11.80;99.90
316;DHT22;14128;48.686;9.738;2023-05-02T07:00:38;11.70;32.60
316;DHT22;14128;48.686;9.738;2023-05-02T07:03:05;11.90;99.90
316;DHT22;14128;48.686;9.738;2023-05-02T07:05:31;12.00;1.00
316;DHT22;14128;48.686;9.738;2023-05-02T07:08:00;12.40;1.00
316;DHT22;14128;48.686;9.738;2023-05-02T07:10:26;12.50;1.00
316;DHT22;14128;48.686;9.738;2023-05-02T07:12:53;12.70;1.40
316;DHT22;14128;48.686;9.738;2023-05-02T07:15:20;13.00;1.00
316;DHT22;14128;48.686;9.738;2023-05-02T07:17:47;13.20;99.90
316;DHT22;14128;48.686;9.738;2023-05-02T07:20:14;13.40;99.90
316;DHT22;14128;48.686;9.738;2023-05-02T07:22:41;13.60;99.90
316;DHT22;14128;48.686;9.738;2023-05-02T07:25:09;13.60;99.90
316;DHT22;14128;48.686;9.738;2023-05-02T07:27:36;13.70;1.00
316;DHT22;14128;48.686;9.738;2023-05-02T07:30:04;14.00;1.00
316;DHT22;14128;48.686;9.738;2023-05-02T07:32:31;14.10;1.00
316;DHT22;14128;48.686;9.738;2023-05-02T07:34:58;14.40;99.90
316;DHT22;14128;48.686;9.738;2023-05-02T07:37:24;14.40;1.00
316;DHT22;14128;48.686;9.738;2023-05-02T07:39:51;14.10;99.90
316;DHT22;14128;48.686;9.738;2023-05-02T07:42:19;13.90;46.70
316;DHT22;14128;48.686;9.738;2023-05-02T07:44:46;13.90;99.90
316;DHT22;14128;48.686;9.738;2023-05-02T07:47:13;13.50;99.90
316;DHT22;14128;48.686;9.738;2023-05-02T07:49:40;13.30;99.90
316;DHT22;14128;48.686;9.738;2023-05-02T07:52:06;13.30;99.90
316;DHT22;14128;48.686;9.738;2023-05-02T07:54:33;13.10;99.90
316;DHT22;14128;48.686;9.738;2023-05-02T07:57:01;13.10;99.90
316;DHT22;14128;48.686;9.738;2023-05-02T07:59:31;13.10;99.90
316;DHT22;14128;48.686;9.738;2023-05-02T08:01:57;13.10;99.90
316;DHT22;14128;48.686;9.738;2023-05-02T08:04:24;13.10;35.30
316;DHT22;14128;48.686;9.738;2023-05-02T08:06:51;13.10;64.80
316;DHT22;14128;48.686;9.738;2023-05-02T08:09:18;13.00;57.90
316;DHT22;14128;48.686;9.738;2023-05-02T08:11:45;13.20;1.00
316;DHT22;14128;48.686;9.738;2023-05-02T08:14:12;13.50;56.90
316;DHT22;14128;48.686;9.738;2023-05-02T08:16:40;13.60;1.00
316;DHT22;14128;48.686;9.738;2023-05-02T08:19:07;13.90;1.00
316;DHT22;14128;48.686;9.738;2023-05-02T08:21:34;14.00;99.90
316;DHT22;14128;48.686;9.738;2023-05-02T08:24:01;14.20;99.90
316;DHT22;14128;48.686;9.738;2023-05-02T08:26:28;14.60;55.40
316;DHT22;14128;48.686;9.738;2023-05-02T08:28:54;14.70;99.90
316;DHT22;14128;48.686;9.738;2023-05-02T08:31:21;14.80;99.90
316;DHT22;14128;48.686;9.738;2023-05-02T08:33:49;14.90;99.90
316;DHT22;14128;48.686;9.738;2023-05-02T08:36:17;14.80;97.40
316;DHT22;14128;48.686;9.738;2023-05-02T08:38:45;15.30;99.90
316;DHT22;14128;48.686;9.738;2023-05-02T08:41:13;15.70;99.90
316;DHT22;14128;48.686;9.738;2023-05-02T08:43:41;15.90;1.00
316;DHT22;14128;48.686;9.738;2023-05-02T08:46:10;16.40;41.30
316;DHT22;14128;48.686;9.738;2023-05-02T08:48:38;16.30;1.00
316;DHT22;14128;48.686;9.738;2023-05-02T08:51:09;16.40;99.90
316;DHT22;14128;48.686;9.738;2023-05-02T08:53:37;16.60;99.90
316;DHT22;14128;48.686;9.738;2023-05-02T08:56:05;16.30;99.90
316;DHT22;14128;48.686;9.738;2023-05-02T08:58:34;16.40;1.00
316;DHT22;14128;48.686;9.738;2023-05-02T09:01:03;16.80;99.90
316;DHT22;14128;48.686;9.738;2023-05-02T09:03:35;16.70;99.90
316;DHT22;14128;48.686;9.738;2023-05-02T09:06:08;16.70;99.90
316;DHT22;14128;48.686;9.738;2023-05-02T09:08:38;17.00;99.90
316;DHT22;14128;48.686;9.738;2023-05-02T09:11:05;17.30;99.90
316;DHT22;14128;48.686;9.738;2023-05-02T09:13:35;17.40;1.00
316;DHT22;14128;48.686;9.738;2023-05-02T09:16:03;17.80;99.90
316;DHT22;14128;48.686;9.738;2023-05-02T09:18:32;17.60;99.90
316;DHT22;14128;48.686;9.738;2023-05-02T09:21:00;17.60;99.90
316;DHT22;14128;48.686;9.738;2023-05-02T09:23:39;17.60;99.90
316;DHT22;14128;48.686;9.738;2023-05-02T09:26:14;17.70;1.00
316;DHT22;14128;48.686;9.738;2023-05-02T09:28:42;17.80;99.90
316;DHT22;14128;48.686;9.738;2023-05-02T09:31:11;17.90;99.90
316;DHT22;14128;48.686;9.738;2023-05-02T09:33:39;17.90;99.90
316;DHT22;14128;48.686;9.738;2023-05-02T09:36:07;17.50;99.90
316;DHT22;14128;48.686;9.738;2023-05-02T09:38:34;17.60;99.90
316;DHT22;14128;48.686;9.738;2023-05-02T09:41:02;17.70;1.00
316;DHT22;14128;48.686;9.738;2023-05-02T09:43:30;17.60;1.00
316;DHT22;14128;48.686;9.738;2023-05-02T09:45:58;18.10;99.90
316;DHT22;14128;48.686;9.738;2023-05-02T09:48:26;18.10;99.90
316;DHT22;14128;48.686;9.738;2023-05-02T09:50:53;17.80;99.90
316;DHT22;14128;48.686;9.738;2023-05-02T09:53:20;18.00;1.00
316;DHT22;14128;48.686;9.738;2023-05-02T09:55:47;17.90;99.90
316;DHT22;14128;48.686;9.738;2023-05-02T09:58:24;18.00;99.90
316;DHT22;14128;48.686;9.738;2023-05-02T10:00:51;18.10;41.80
316;DHT22;14128;48.686;9.738;2023-05-02T10:03:18;17.60;99.90
316;DHT22;14128;48.686;9.738;2023-05-02T10:05:46;17.40;41.50
316;DHT22;14128;48.686;9.738;2023-05-02T10:08:13;17.30;99.90
316;DHT22;14128;48.686;9.738;2023-05-02T10:10:45;17.80;99.90
316;DHT22;14128;48.686;9.738;2023-05-02T10:13:14;18.10;1.00
316;DHT22;14128;48.686;9.738;2023-05-02T10:15:43;18.10;99.90
316;DHT22;14128;48.686;9.738;2023-05-02T10:18:12;18.70;99.90
316;DHT22;14128;48.686;9.738;2023-05-02T10:20:43;19.40;99.90
316;DHT22;14128;48.686;9.738;2023-05-02T10:23:14;19.60;99.90
316;DHT22;14128;48.686;9.738;2023-05-02T10:25:42;19.90;99.90
316;DHT22;14128;48.686;9.738;2023-05-02T10:28:09;20.40;1.00
316;DHT22;14128;48.686;9.738;2023-05-02T10:30:38;20.60;99.90
316;DHT22;14128;48.686;9.738;2023-05-02T10:33:06;20.60;99.90
316;DHT22;14128;48.686;9.738;2023-05-02T10:35:35;20.00;99.90
316;DHT22;14128;48.686;9.738;2023-05-02T10:38:03;19.30;99.90
316;DHT22;14128;48.686;9.738;2023-05-02T10:40:31;19.30;99.90
316;DHT22;14128;48.686;9.738;2023-05-02T10:42:59;20.10;99.90
316;DHT22;14128;48.686;9.738;2023-05-02T10:45:30;20.30;99.90
316;DHT22;14128;48.686;9.738;2023-05-02T10:48:17;20.60;99.90
316;DHT22;14128;48.686;9.738;2023-05-02T10:50:46;20.70;99.90
316;DHT22;14128;48.686;9.738;2023-05-02T10:53:27;20.80;99.90
316;DHT22;14128;48.686;9.738;2023-05-02T10:56:13;20.20;99.90
316;DHT22;14128;48.686;9.738;2023-05-02T10:58:40;20.00;99.90
316;DHT22;14128;48.686;9.738;2023-05-02T11:01:35;20.10;99.90
316;DHT22;14128;48.686;9.738;2023-05-02T11:04:08;20.10;99.90
316;DHT22;14128;48.686;9.738;2023-05-02T11:06:36;19.80;99.90
316;DHT22;14128;48.686;9.738;2023-05-02T11:09:31;19.30;99.90
316;DHT22;14128;48.686;9.738;2023-05-02T11:11:58;19.20;1.00
316;DHT22;14128;48.686;9.738;2023-05-02T11:14:46;19.20;99.90
316;DHT22;14128;48.686;9.738;2023-05-02T11:17:13;19.60;99.90
316;DHT22;14128;48.686;9.738;2023-05-02T11:22:58;19.80;99.90
316;DHT22;14128;48.686;9.738;2023-05-02T11:25:36;19.70;99.90
316;DHT22;14128;48.686;9.738;2023-05-02T11:28:06;19.10;99.90
316;DHT22;14128;48.686;9.738;2023-05-02T11:30:43;19.00;99.90
316;DHT22;14128;48.686;9.738;2023-05-02T11:33:18;18.80;99.90
316;DHT22;14128;48.686;9.738;2023-05-02T11:35:47;18.90;99.90
316;DHT22;14128;48.686;9.738;2023-05-02T11:38:18;19.20;99.90
316;DHT22;14128;48.686;9.738;2023-05-02T11:40:55;19.40;1.00
316;DHT22;14128;48.686;9.738;2023-05-02T11:43:23;19.80;99.90
316;DHT22;14128;48.686;9.738;2023-05-02T11:45:51;19.90;99.90
316;DHT22;14128;48.686;9.738;2023-05-02T11:48:19;20.00;99.90
316;DHT22;14128;48.686;9.738;2023-05-02T11:50:47;20.20;99.90
316;DHT22;14128;48.686;9.738;2023-05-02T11:53:17;20.60;99.90
316;DHT22;14128;48.686;9.738;2023-05-02T11:55:48;21.20;88.40
316;DHT22;14128;48.686;9.738;2023-05-02T11:58:16;21.10;1.00
316;DHT22;14128;48.686;9.738;2023-05-02T12:00:44;21.80;99.90
316;DHT22;14128;48.686;9.738;2023-05-02T12:03:23;21.70;1.00
316;DHT22;14128;48.686;9.738;2023-05-02T12:05:50;21.70;99.90
316;DHT22;14128;48.686;9.738;2023-05-02T12:08:21;20.90;99.90
316;DHT22;14128;48.686;9.738;2023-05-02T12:10:49;20.80;99.90
316;DHT22;14128;48.686;9.738;2023-05-02T12:13:18;20.70;99.90
316;DHT22;14128;48.686;9.738;2023-05-02T12:15:46;21.10;44.30
316;DHT22;14128;48.686;9.738;2023-05-02T12:18:14;21.40;99.90
316;DHT22;14128;48.686;9.738;2023-05-02T12:20:41;21.20;99.90
316;DHT22;14128;48.686;9.738;2023-05-02T12:23:08;21.00;99.90
316;DHT22;14128;48.686;9.738;2023-05-02T12:25:38;21.50;1.00
316;DHT22;14128;48.686;9.738;2023-05-02T12:28:06;21.80;1.00
316;DHT22;14128;48.686;9.738;2023-05-02T12:30:33;21.80;99.90
316;DHT22;14128;48.686;9.738;2023-05-02T12:33:01;21.70;99.90
316;DHT22;14128;48.686;9.738;2023-05-02T12:35:29;21.40;1.00
316;DHT22;14128;48.686;9.738;2023-05-02T12:38:11;21.50;99.90
316;DHT22;14128;48.686;9.738;2023-05-02T12:40:46;21.50;99.90
316;DHT22;14128;48.686;9.738;2023-05-02T12:43:13;21.50;99.90
316;DHT22;14128;48.686;9.738;2023-05-02T12:45:40;22.50;99.90
316;DHT22;14128;48.686;9.738;2023-05-02T12:48:24;22.30;99.90
316;DHT22;14128;48.686;9.738;2023-05-02T12:50:52;21.90;1.00
316;DHT22;14128;48.686;9.738;2023-05-02T12:53:39;21.40;99.90
316;DHT22;14128;48.686;9.738;2023-05-02T12:56:08;21.60;99.90
316;DHT22;14128;48.686;9.738;2023-05-02T12:58:43;22.70;1.00
316;DHT22;14128;48.686;9.738;2023-05-02T13:01:10;23.80;99.90
316;DHT22;14128;48.686;9.738;2023-05-02T13:03:38;24.10;99.90
316;DHT22;14128;48.686;9.738;2023-05-02T13:06:05;23.40;99.90
316;DHT22;14128;48.686;9.738;2023-05-02T13:08:32;22.80;99.90
316;DHT22;14128;48.686;9.738;2023-05-02T13:10:59;22.10;99.90
316;DHT22;14128;48.686;9.738;2023-05-02T13:13:27;21.80;99.90
316;DHT22;14128;48.686;9.738;2023-05-02T13:15:55;21.80;99.90
316;DHT22;14128;48.686;9.738;2023-05-02T13:18:21;21.20;99.90
316;DHT22;14128;48.686;9.738;2023-05-02T13:20:48;20.90;99.90
316;DHT22;14128;48.686;9.738;2023-05-02T13:23:15;20.50;99.90
316;DHT22;14128;48.686;9.738;2023-05-02T13:25:42;20.50;99.90
316;DHT22;14128;48.686;9.738;2023-05-02T13:28:09;19.80;99.90
316;DHT22;14128;48.686;9.738;2023-05-02T13:30:37;19.10;99.90
316;DHT22;14128;48.686;9.738;2023-05-02T13:33:04;18.70;99.90
316;DHT22;14128;48.686;9.738;2023-05-02T13:35:30;18.40;99.90
316;DHT22;14128;48.686;9.738;2023-05-02T13:37:57;18.20;99.90
316;DHT22;14128;48.686;9.738;2023-05-02T13:40:24;18.00;99.90
316;DHT22;14128;48.686;9.738;2023-05-02T13:42:51;17.50;99.90
316;DHT22;14128;48.686;9.738;2023-05-02T13:45:18;17.50;99.90
316;DHT22;14128;48.686;9.738;2023-05-02T13:47:46;17.30;99.90
316;DHT22;14128;48.686;9.738;2023-05-02T13:50:13;17.50;99.90
316;DHT22;14128;48.686;9.738;2023-05-02T13:52:40;17.70;99.90
316;DHT22;14128;48.686;9.738;2023-05-02T13:55:07;17.80;1.00
316;DHT22;14128;48.686;9.738;2023-05-02T13:57:34;17.80;99.90
316;DHT22;14128;48.686;9.738;2023-05-02T14:00:01;18.20;99.90
316;DHT22;14128;48.686;9.738;2023-05-02T14:02:28;18.10;99.90
316;DHT22;14128;48.686;9.738;2023-05-02T14:04:56;18.40;99.90
316;DHT22;14128;48.686;9.738;2023-05-02T14:07:23;18.60;99.90
316;DHT22;14128;48.686;9.738;2023-05-02T14:09:50;18.50;99.90
316;DHT22;14128;48.686;9.738;2023-05-02T14:12:16;18.90;99.90
316;DHT22;14128;48.686;9.738;2023-05-02T14:14:43;20.20;99.90
316;DHT22;14128;48.686;9.738;2023-05-02T14:17:10;20.80;1.00
316;DHT22;14128;48.686;9.738;2023-05-02T14:19:37;21.80;99.90
316;DHT22;14128;48.686;9.738;2023-05-02T14:22:05;23.20;99.90
316;DHT22;14128;48.686;9.738;2023-05-02T14:24:32;22.10;1.00
316;DHT22;14128;48.686;9.738;2023-05-02T14:26:59;23.80;99.90
316;DHT22;14128;48.686;9.738;2023-05-02T14:29:26;23.50;99.90
316;DHT22;14128;48.686;9.738;2023-05-02T14:31:52;22.60;99.90
316;DHT22;14128;48.686;9.738;2023-05-02T14:34:19;22.40;99.90
316;DHT22;14128;48.686;9.738;2023-05-02T14:36:46;23.90;1.00
316;DHT22;14128;48.686;9.738;2023-05-02T14:39:14;26.80;99.90
316;DHT22;14128;48.686;9.738;2023-05-02T14:41:41;28.70;99.90
316;DHT22;14128;48.686;9.738;2023-05-02T14:44:08;26.10;99.90
316;DHT22;14128;48.686;9.738;2023-05-02T14:46:35;25.40;99.90
316;DHT22;14128;48.686;9.738;2023-05-02T14:49:01;28.70;99.90
316;DHT22;14128;48.686;9.738;2023-05-02T14:51:28;27.90;99.90
316;DHT22;14128;48.686;9.738;2023-05-02T14:53:56;26.40;99.90
316;DHT22;14128;48.686;9.738;2023-05-02T14:56:24;26.40;99.90
316;DHT22;14128;48.686;9.738;2023-05-02T14:58:51;28.70;1.00
316;DHT22;14128;48.686;9.738;2023-05-02T15:01:19;30.20;99.90
316;DHT22;14128;48.686;9.738;2023-05-02T15:03:46;30.00;1.00
316;DHT22;14128;48.686;9.738;2023-05-02T15:06:14;30.70;99.90
316;DHT22;14128;48.686;9.738;2023-05-02T15:08:41;29.70;40.30
316;DHT22;14128;48.686;9.738;2023-05-02T15:11:09;29.30;99.90
316;DHT22;14128;48.686;9.738;2023-05-02T15:13:37;30.60;99.90
316;DHT22;14128;48.686;9.738;2023-05-02T15:16:05;32.40;1.00
316;DHT22;14128;48.686;9.738;2023-05-02T15:18:32;32.90;99.90
316;DHT22;14128;48.686;9.738;2023-05-02T15:20:58;34.00;99.90
316;DHT22;14128;48.686;9.738;2023-05-02T15:23:25;33.70;99.90
316;DHT22;14128;48.686;9.738;2023-05-02T15:25:52;33.50;99.90
316;DHT22;14128;48.686;9.738;2023-05-02T15:28:19;33.60;99.90
316;DHT22;14128;48.686;9.738;2023-05-02T15:30:47;33.70;99.90
316;DHT22;14128;48.686;9.738;2023-05-02T15:33:14;33.80;99.90
316;DHT22;14128;48.686;9.738;2023-05-02T15:35:51;33.30;1.00
316;DHT22;14128;48.686;9.738;2023-05-02T15:38:18;29.20;1.00
316;DHT22;14128;48.686;9.738;2023-05-02T15:40:52;26.10;99.90
316;DHT22;14128;48.686;9.738;2023-05-02T15:43:19;27.50;99.90
316;DHT22;14128;48.686;9.738;2023-05-02T15:45:51;26.70;99.90
316;DHT22;14128;48.686;9.738;2023-05-02T15:48:18;25.20;99.90
316;DHT22;14128;48.686;9.738;2023-05-02T15:50:45;23.30;99.90
316;DHT22;14128;48.686;9.738;2023-05-02T15:53:12;22.10;99.90
316;DHT22;14128;48.686;9.738;2023-05-02T15:55:40;24.50;1.00
316;DHT22;14128;48.686;9.738;2023-05-02T15:58:07;24.50;99.90
316;DHT22;14128;48.686;9.738;2023-05-02T16:00:34;23.60;99.90
316;DHT22;14128;48.686;9.738;2023-05-02T16:03:03;22.70;99.90
316;DHT22;14128;48.686;9.738;2023-05-02T16:05:30;21.90;99.90
316;DHT22;14128;48.686;9.738;2023-05-02T16:07:57;21.50;99.90
316;DHT22;14128;48.686;9.738;2023-05-02T16:10:24;21.30;99.90
316;DHT22;14128;48.686;9.738;2023-05-02T16:12:51;21.00;99.90
316;DHT22;14128;48.686;9.738;2023-05-02T16:15:18;20.50;99.90
316;DHT22;14128;48.686;9.738;2023-05-02T16:17:46;19.80;99.90
316;DHT22;14128;48.686;9.738;2023-05-02T16:20:15;19.30;99.90
316;DHT22;14128;48.686;9.738;2023-05-02T16:22:42;19.30;99.90
316;DHT22;14128;48.686;9.738;2023-05-02T16:25:10;19.00;99.90